Clinton, Arkansas
Current Conditions -  °F | °C
As of 3:53 PM on Friday 31 Oct 2014 (Local Time) from KRUE Reporting Station
Clear Clear  
Wind Chill: 64°   Ceiling: Unl
Heat Index: 64°   Visibility: 10mi
Dew Point: 32°   Wind: 14mph
Humidity: 30%   Direction: 330°NNW
Pressure: 30.23"   Gusts: 20mph
Location:  35.59°N, 92.46°W
Report Text: KRUE 312053Z AUTO 33012G17KT 10SM CLR 18/00 A3023 RMK AO2 SLP234 T01780000 55008
Loading
Personal Weather Stations






























Interactive Weather Map
Tropical Storm Tracking
New forecast layout! Learn more

10-Day Weather Forecast

Advertisements
Track Severe Weather on mobile